Time;durP1;ratioP1;P1;durP2;ratioP2;P2;SDS_P1;SDS_P2;PMS_P1;PMS_P2;Temp;Humidity;BMP_temperature;BMP_pressure;BME280_temperature;BME280_humidity;BME280_pressure;Samples;Min_cycle;Max_cycle;Signal;HPM_P1;HPM_P2
2023/07/05 00:02:17;;;;;;;0.00;0.00;;;;;;;16.90;nan;100194.31;4967994;28;20185;-85
2023/07/05 00:04:42;;;;;;;0.00;0.00;;;;;;;16.70;nan;100189.94;4978139;28;20201;-85
2023/07/05 00:07:07;;;;;;;0.00;0.00;;;;;;;16.46;nan;100191.69;4970268;28;20187;-84
2023/07/05 00:09:33;;;;;;;0.00;0.00;;;;;;;16.44;nan;100184.94;4963711;28;20198;-86
2023/07/05 00:11:58;;;;;;;0.00;0.00;;;;;;;16.40;nan;100173.84;4963987;28;20193;-85
2023/07/05 00:14:24;;;;;;;0.00;0.00;;;;;;;16.39;nan;100163.16;4968319;28;20174;-85
2023/07/05 00:16:49;;;;;;;1.00;0.93;;;;;;;16.32;nan;100166.53;4975277;28;20174;-87
2023/07/05 00:19:14;;;;;;;0.00;0.00;;;;;;;16.32;nan;100161.81;4959169;28;20202;-86
2023/07/05 00:21:40;;;;;;;0.00;0.00;;;;;;;16.42;nan;100159.69;4969129;28;20185;-85
2023/07/05 00:24:05;;;;;;;0.00;0.00;;;;;;;16.46;nan;100155.84;4971121;28;20182;-85
2023/07/05 00:26:32;;;;;;;0.00;0.00;;;;;;;16.31;nan;100137.38;4990257;28;20241;-84
2023/07/05 00:28:57;;;;;;;0.00;0.00;;;;;;;16.43;nan;100136.47;4982289;28;20218;-86
2023/07/05 00:31:22;;;;;;;0.00;0.00;;;;;;;16.47;nan;100142.88;4968022;28;20211;-85
2023/07/05 00:33:47;;;;;;;0.40;0.40;;;;;;;16.40;nan;100154.53;4980374;28;20623;-85
2023/07/05 00:36:13;;;;;;;0.00;0.00;;;;;;;16.33;nan;100141.38;4973962;28;20182;-85
2023/07/05 00:38:38;;;;;;;0.00;0.00;;;;;;;16.48;nan;100131.47;4971767;28;20209;-86
2023/07/05 00:41:04;;;;;;;0.00;0.00;;;;;;;16.51;nan;100139.03;4970001;28;20277;-84
2023/07/05 00:43:29;;;;;;;0.00;0.00;;;;;;;16.50;nan;100137.44;4970275;28;20565;-85
2023/07/05 00:45:57;;;;;;;0.20;0.20;;;;;;;16.49;nan;100130.34;4970057;28;20237;-85
2023/07/05 00:48:39;;;;;;;0.00;0.00;;;;;;;16.50;nan;100126.41;4965693;28;20261;-85
2023/07/05 00:51:12;;;;;;;0.00;0.00;;;;;;;16.40;nan;100121.44;4973947;28;20206;-85
2023/07/05 00:53:38;;;;;;;0.00;0.00;;;;;;;16.35;nan;100118.97;4974718;28;20184;-86
2023/07/05 00:56:18;;;;;;;0.00;0.00;;;;;;;16.44;nan;100089.22;4982261;28;20233;-85
2023/07/05 00:58:44;;;;;;;0.00;0.00;;;;;;;16.41;nan;100114.78;4963991;28;20202;-85
2023/07/05 01:01:10;;;;;;;0.00;0.00;;;;;;;16.50;nan;100115.38;4985116;28;20613;-85
2023/07/05 01:03:36;;;;;;;1.33;0.23;;;;;;;16.44;nan;100104.97;4980449;28;20193;-85
2023/07/05 01:06:02;;;;;;;0.00;0.00;;;;;;;16.26;nan;100099.06;4980688;28;20229;-86
2023/07/05 01:08:28;;;;;;;0.00;0.00;;;;;;;16.28;nan;100091.22;4976597;28;20557;-87
2023/07/05 01:11:09;;;;;;;0.00;0.00;;;;;;;16.23;nan;100097.03;4967591;28;20198;-86
2023/07/05 01:13:41;;;;;;;0.00;0.00;;;;;;;16.24;nan;100071.06;4969094;28;20186;-87
2023/07/05 01:16:22;;;;;;;0.00;0.00;;;;;;;16.22;nan;100078.88;4967893;28;20196;-85
2023/07/05 01:19:28;;;;;;;0.00;0.00;;;;;;;16.19;nan;100076.81;4965785;28;20237;-87
2023/07/05 01:22:03;;;;;;;0.00;0.00;;;;;;;16.25;nan;100067.13;4941586;29;20225;-85
2023/07/05 01:24:48;;;;;;;0.00;0.00;;;;;;;16.30;nan;100077.88;4970836;28;20196;-85
2023/07/05 01:27:23;;;;;;;0.00;0.00;;;;;;;16.36;nan;100068.97;4962508;28;20220;-85
2023/07/05 01:30:16;;;;;;;0.00;0.00;;;;;;;16.40;nan;100062.75;4978921;28;20221;-85
2023/07/05 01:33:02;;;;;;;0.00;0.00;;;;;;;16.42;nan;100043.88;4981541;28;20261;-85
2023/07/05 01:35:36;;;;;;;0.00;0.00;;;;;;;16.18;nan;100014.59;4972866;28;20198;-85
2023/07/05 01:38:05;;;;;;;0.37;0.37;;;;;;;15.74;nan;99998.22;4987747;28;20213;-85
2023/07/05 01:40:30;;;;;;;0.20;0.20;;;;;;;15.56;nan;99942.69;4972381;28;20178;-87
2023/07/05 01:42:59;;;;;;;0.00;0.00;;;;;;;15.72;nan;100014.31;4973420;28;20246;-85
2023/07/05 01:45:49;;;;;;;0.73;0.73;;;;;;;15.41;nan;99990.28;4967663;28;20175;-86
2023/07/05 01:48:37;;;;;;;0.00;0.00;;;;;;;15.33;nan;99996.75;4982882;28;20711;-85
2023/07/05 01:51:10;;;;;;;0.00;0.00;;;;;;;15.26;nan;99986.38;4991684;28;20210;-86
2023/07/05 01:53:48;;;;;;;0.17;0.10;;;;;;;15.51;nan;99994.47;4971792;28;20188;-85
2023/07/05 01:56:20;;;;;;;0.00;0.00;;;;;;;15.73;nan;100018.66;4974793;28;20675;-85
2023/07/05 01:58:49;;;;;;;0.37;0.37;;;;;;;15.79;nan;100006.22;4981143;28;20225;-87
2023/07/05 02:01:17;;;;;;;0.00;0.00;;;;;;;15.84;nan;100005.16;4979915;28;20175;-86
2023/07/05 02:03:46;;;;;;;0.00;0.00;;;;;;;15.74;nan;100007.28;4973991;28;20189;-86
2023/07/05 02:06:12;;;;;;;0.00;0.00;;;;;;;15.81;nan;100000.34;4980121;28;20189;-87
2023/07/05 02:08:39;;;;;;;0.00;0.00;;;;;;;15.88;nan;99995.00;4993104;28;20202;-87
2023/07/05 02:11:05;;;;;;;0.37;0.37;;;;;;;15.47;nan;99973.13;4974857;28;20303;-87
2023/07/05 02:13:31;;;;;;;0.47;0.47;;;;;;;15.67;nan;99956.75;4966932;28;20684;-85
2023/07/05 02:15:56;;;;;;;0.20;0.20;;;;;;;15.81;nan;99994.84;4990476;28;20190;-87
2023/07/05 02:18:22;;;;;;;0.00;0.00;;;;;;;15.80;nan;99988.53;4987528;28;20228;-86
2023/07/05 02:20:47;;;;;;;0.00;0.00;;;;;;;15.86;nan;99975.28;4983805;28;20232;-88
2023/07/05 02:23:12;;;;;;;0.00;0.00;;;;;;;15.73;nan;99966.31;4981274;28;20197;-85
2023/07/05 02:25:38;;;;;;;0.03;0.03;;;;;;;15.80;nan;99983.03;4989916;28;20276;-85
2023/07/05 02:28:08;;;;;;;0.00;0.00;;;;;;;15.88;nan;99973.75;4966433;28;20301;-85
2023/07/05 02:30:36;;;;;;;0.00;0.00;;;;;;;15.73;nan;99901.00;4961987;28;20238;-85
2023/07/05 02:33:01;;;;;;;0.00;0.00;;;;;;;15.81;nan;99973.59;4970326;28;20190;-87
2023/07/05 02:35:26;;;;;;;0.10;0.10;;;;;;;15.91;nan;99967.56;4969194;28;20194;-85
2023/07/05 02:37:51;;;;;;;0.00;0.00;;;;;;;15.99;nan;99958.28;4968935;28;20246;-85
2023/07/05 02:40:17;;;;;;;0.00;0.00;;;;;;;15.97;nan;99954.28;4971846;28;20553;-86
2023/07/05 02:42:42;;;;;;;0.00;0.00;;;;;;;15.93;nan;99954.22;4988271;28;20232;-85
2023/07/05 02:45:08;;;;;;;0.00;0.00;;;;;;;15.99;nan;99936.22;4973169;28;20236;-86
2023/07/05 02:47:33;;;;;;;0.00;0.00;;;;;;;15.96;nan;99936.16;4969518;28;20214;-84
2023/07/05 02:49:58;;;;;;;0.00;0.00;;;;;;;15.90;nan;99932.88;4968988;28;20692;-87
2023/07/05 02:52:23;;;;;;;0.00;0.00;;;;;;;15.93;nan;99926.66;4972700;28;20182;-87
2023/07/05 02:54:49;;;;;;;0.00;0.00;;;;;;;15.87;nan;99906.03;4971320;28;20236;-87
2023/07/05 02:57:14;;;;;;;0.00;0.00;;;;;;;15.70;nan;99895.44;4972637;28;20244;-87
2023/07/05 02:59:39;;;;;;;0.00;0.00;;;;;;;15.69;nan;99883.63;4987595;28;20189;-87
2023/07/05 03:02:05;;;;;;;0.43;0.43;;;;;;;15.58;nan;99868.78;4987377;28;20182;-87
2023/07/05 03:04:30;;;;;;;0.00;0.00;;;;;;;15.57;nan;99871.88;4971102;28;20678;-86
2023/07/05 03:06:55;;;;;;;0.00;0.00;;;;;;;15.44;nan;99862.94;4967321;28;20277;-86
2023/07/05 03:09:21;;;;;;;0.00;0.00;;;;;;;15.54;nan;99842.31;4967316;28;20790;-86
2023/07/05 03:11:46;;;;;;;0.00;0.00;;;;;;;15.37;nan;99829.75;4966948;28;20185;-87
2023/07/05 03:14:11;;;;;;;0.00;0.00;;;;;;;15.37;nan;99858.09;4968218;28;20185;-86
2023/07/05 03:16:37;;;;;;;0.00;0.00;;;;;;;15.28;nan;99848.41;4972543;28;20186;-86
2023/07/05 03:19:02;;;;;;;2.40;1.27;;;;;;;15.08;nan;99796.06;4965222;28;20707;-86
2023/07/05 03:21:27;;;;;;;0.00;0.00;;;;;;;14.88;nan;99800.69;4956408;28;20174;-86
2023/07/05 03:23:53;;;;;;;0.00;0.00;;;;;;;14.78;nan;99838.94;4965936;28;20213;-86
2023/07/05 03:26:18;;;;;;;0.00;0.00;;;;;;;15.08;nan;99837.34;4959037;28;20269;-86
2023/07/05 03:28:43;;;;;;;0.30;0.30;;;;;;;14.83;nan;99822.97;4966677;28;20217;-86
2023/07/05 03:31:12;;;;;;;0.00;0.00;;;;;;;14.98;nan;99837.88;4966402;28;20650;-85
2023/07/05 03:33:38;;;;;;;0.00;0.00;;;;;;;14.92;nan;99827.50;4979798;28;20189;-86
2023/07/05 03:36:09;;;;;;;0.17;0.17;;;;;;;14.82;nan;99807.63;4972374;28;20186;-87
2023/07/05 03:38:34;;;;;;;0.17;0.17;;;;;;;14.90;nan;99792.09;4955609;28;20711;-85
2023/07/05 03:41:03;;;;;;;0.30;0.30;;;;;;;15.12;nan;99782.38;4963172;28;20178;-86
2023/07/05 03:43:30;;;;;;;0.10;0.10;;;;;;;15.20;nan;99814.44;4967516;28;20668;-88
2023/07/05 03:45:59;;;;;;;0.40;0.40;;;;;;;15.16;nan;99806.06;4967391;28;20182;-86
2023/07/05 03:48:25;;;;;;;0.20;0.10;;;;;;;15.25;nan;99796.84;4966268;28;20232;-86
2023/07/05 03:50:55;;;;;;;0.03;0.03;;;;;;;15.40;nan;99796.78;4966082;28;20349;-86
2023/07/05 03:53:20;;;;;;;0.97;0.57;;;;;;;15.44;nan;99783.09;4958186;28;20712;-86
2023/07/05 03:55:45;;;;;;;0.33;0.33;;;;;;;15.61;nan;99792.94;4968903;28;20254;-86
2023/07/05 03:58:11;;;;;;;1.20;1.13;;;;;;;15.75;nan;99796.00;4966011;28;20297;-86
2023/07/05 04:00:36;;;;;;;0.00;0.00;;;;;;;15.77;nan;99788.97;4963119;28;20675;-86
2023/07/05 04:03:01;;;;;;;0.00;0.00;;;;;;;15.94;nan;99789.69;4956087;28;20174;-86
2023/07/05 04:05:27;;;;;;;4.57;2.53;;;;;;;16.11;nan;99794.75;4965482;28;20204;-86
2023/07/05 04:08:00;;;;;;;1.93;1.03;;;;;;;16.22;nan;99790.25;4973983;28;20205;-86
2023/07/05 04:10:31;;;;;;;0.00;0.00;;;;;;;16.30;nan;99783.69;4964486;28;20205;-86
2023/07/05 04:12:56;;;;;;;0.83;0.83;;;;;;;16.20;nan;99778.81;4962034;28;20194;-87
2023/07/05 04:15:25;;;;;;;7.43;2.10;;;;;;;16.28;nan;99771.44;4963106;28;20197;-86
2023/07/05 04:17:50;;;;;;;4.37;1.97;;;;;;;16.37;nan;99766.50;4964953;28;20206;-86
2023/07/05 04:20:30;;;;;;;0.10;0.10;;;;;;;16.53;nan;99778.19;4970390;28;20248;-87
2023/07/05 04:22:58;;;;;;;0.73;0.73;;;;;;;16.46;nan;99767.03;4968079;28;20190;-86
2023/07/05 04:25:23;;;;;;;0.33;0.33;;;;;;;16.61;nan;99779.91;4964844;28;20199;-86
2023/07/05 04:27:48;;;;;;;0.17;0.10;;;;;;;16.54;nan;99777.03;4963022;28;20753;-86
2023/07/05 04:30:14;;;;;;;0.83;0.83;;;;;;;16.56;nan;99777.47;4967927;28;20621;-88
2023/07/05 04:32:39;;;;;;;0.00;0.00;;;;;;;16.61;nan;99784.63;4964247;28;20186;-86
2023/07/05 04:35:05;;;;;;;3.50;3.17;;;;;;;16.59;nan;99785.00;4964468;28;20187;-86
2023/07/05 04:37:30;;;;;;;3.10;1.93;;;;;;;16.50;nan;99780.91;4970282;28;20260;-87
2023/07/05 04:39:55;;;;;;;2.63;1.90;;;;;;;16.47;nan;99782.41;4970183;28;20209;-86
2023/07/05 04:42:20;;;;;;;1.07;1.03;;;;;;;16.39;nan;99777.94;4978230;28;20583;-88
2023/07/05 04:44:46;;;;;;;0.83;0.83;;;;;;;16.31;nan;99770.69;4971588;28;20185;-86
2023/07/05 04:47:11;;;;;;;3.10;2.30;;;;;;;16.18;nan;99767.31;4958768;28;20564;-85
2023/07/05 04:49:36;;;;;;;2.10;1.43;;;;;;;16.09;nan;99754.94;4969205;28;20209;-86
2023/07/05 04:52:01;;;;;;;0.63;0.63;;;;;;;16.08;nan;99740.38;4969872;28;20269;-86
2023/07/05 04:54:27;;;;;;;0.00;0.00;;;;;;;16.01;nan;99746.53;4967303;28;20187;-87
2023/07/05 04:56:52;;;;;;;3.60;1.43;;;;;;;15.99;nan;99704.78;4964857;28;20182;-86
2023/07/05 04:59:19;;;;;;;0.00;0.00;;;;;;;15.97;nan;99739.38;4967860;28;20217;-86
2023/07/05 05:01:44;;;;;;;0.00;0.00;;;;;;;15.93;nan;99733.81;4966500;28;20182;-84
2023/07/05 05:04:09;;;;;;;0.10;0.10;;;;;;;15.88;nan;99738.78;4965801;28;20743;-87
2023/07/05 05:06:35;;;;;;;0.00;0.00;;;;;;;15.97;nan;99736.63;4969795;28;20186;-87
2023/07/05 05:09:00;;;;;;;0.00;0.00;;;;;;;15.92;nan;99726.69;4970532;28;20232;-86
2023/07/05 05:11:27;;;;;;;0.00;0.00;;;;;;;15.94;nan;99723.56;4966538;28;20214;-87
2023/07/05 05:13:52;;;;;;;0.87;0.87;;;;;;;16.01;nan;99720.94;4988374;28;20214;-86
2023/07/05 05:16:18;;;;;;;0.00;0.00;;;;;;;16.09;nan;99741.97;4960989;28;20233;-86
2023/07/05 05:18:44;;;;;;;0.00;0.00;;;;;;;16.22;nan;99742.59;4968939;28;20696;-86
2023/07/05 05:21:09;;;;;;;0.50;0.47;;;;;;;16.23;nan;99730.41;4968416;28;20178;-86
2023/07/05 05:23:35;;;;;;;0.00;0.00;;;;;;;16.18;nan;99719.66;4985107;28;20252;-87
2023/07/05 05:26:01;;;;;;;0.53;0.50;;;;;;;16.36;nan;99729.06;4968826;28;20277;-85
2023/07/05 05:28:26;;;;;;;0.27;0.27;;;;;;;16.40;nan;99763.00;4960921;28;20245;-86
2023/07/05 05:30:59;;;;;;;0.10;0.10;;;;;;;16.47;nan;99765.06;4962058;28;20236;-85
2023/07/05 05:33:24;;;;;;;0.00;0.00;;;;;;;16.48;nan;99767.47;4965496;28;20190;-86
2023/07/05 05:35:50;;;;;;;0.37;0.37;;;;;;;16.55;nan;99767.59;4954506;29;20278;-86
2023/07/05 05:38:17;;;;;;;1.30;1.13;;;;;;;16.53;nan;99783.72;4965558;28;20206;-86
2023/07/05 05:40:42;;;;;;;0.77;0.67;;;;;;;16.68;nan;99789.50;4968354;28;20178;-86
2023/07/05 05:43:07;;;;;;;1.27;1.10;;;;;;;16.74;nan;99797.09;4968600;28;20182;-86
2023/07/05 05:45:33;;;;;;;0.73;0.70;;;;;;;16.80;nan;99778.28;4973432;28;20190;-87
2023/07/05 05:47:58;;;;;;;2.27;1.93;;;;;;;16.68;nan;99830.88;4965313;28;20297;-86
2023/07/05 05:50:24;;;;;;;1.37;1.27;;;;;;;16.51;nan;99821.91;4972993;28;20337;-87
2023/07/05 05:52:49;;;;;;;2.33;2.10;;;;;;;16.17;nan;99980.72;4987005;28;20193;-86
2023/07/05 05:55:15;;;;;;;3.13;2.00;;;;;;;15.94;nan;99864.09;4966267;28;20181;-86
2023/07/05 05:57:40;;;;;;;1.17;1.13;;;;;;;15.94;nan;99851.09;4965298;28;20288;-87
2023/07/05 06:00:09;;;;;;;1.17;1.13;;;;;;;15.75;nan;99788.53;4964586;28;20217;-87
2023/07/05 06:02:34;;;;;;;0.43;0.17;;;;;;;15.93;nan;99764.09;4964944;28;20179;-87
2023/07/05 06:05:00;;;;;;;0.23;0.20;;;;;;;16.01;nan;99800.84;4965767;28;20306;-87
2023/07/05 06:07:27;;;;;;;2.90;1.80;;;;;;;16.10;nan;99806.16;4963501;28;20206;-86
2023/07/05 06:09:52;;;;;;;0.00;0.00;;;;;;;16.15;nan;99781.03;4979334;28;20202;-87
2023/07/05 06:12:17;;;;;;;0.50;0.33;;;;;;;16.31;nan;99792.75;4964279;28;20605;-87
2023/07/05 06:14:42;;;;;;;0.00;0.00;;;;;;;16.27;nan;99787.19;4964504;28;20186;-86
2023/07/05 06:17:09;;;;;;;0.40;0.40;;;;;;;16.31;nan;99737.63;4963307;28;20186;-87
2023/07/05 06:19:34;;;;;;;0.00;0.00;;;;;;;16.30;nan;99763.59;4974295;28;20193;-87
2023/07/05 06:22:00;;;;;;;0.00;0.00;;;;;;;16.35;nan;99758.59;4967632;28;20189;-87
2023/07/05 06:24:25;;;;;;;0.00;0.00;;;;;;;16.23;nan;99733.16;4959594;28;20182;-87
2023/07/05 06:26:51;;;;;;;0.77;0.77;;;;;;;16.21;nan;99755.59;4982600;28;20297;-86
2023/07/05 06:29:16;;;;;;;0.00;0.00;;;;;;;16.22;nan;99756.38;4973450;28;20693;-86
2023/07/05 06:31:41;;;;;;;0.00;0.00;;;;;;;16.24;nan;99743.03;4965713;28;20592;-87
2023/07/05 06:34:07;;;;;;;0.47;0.47;;;;;;;16.41;nan;99767.34;4966192;28;20590;-88
2023/07/05 06:36:32;;;;;;;0.00;0.00;;;;;;;16.38;nan;99764.53;4955234;28;20187;-88
2023/07/05 06:38:57;;;;;;;0.00;0.00;;;;;;;16.34;nan;99754.22;4955097;28;20301;-88
2023/07/05 06:41:23;;;;;;;0.73;0.73;;;;;;;16.41;nan;99726.00;4953367;29;20190;-87
2023/07/05 06:43:49;;;;;;;0.37;0.37;;;;;;;16.52;nan;99742.72;4954955;28;20182;-87
2023/07/05 06:46:14;;;;;;;0.53;0.53;;;;;;;16.47;nan;99741.06;4955071;28;20266;-87
2023/07/05 06:48:39;;;;;;;1.67;0.73;;;;;;;16.50;nan;99745.06;4958513;28;20446;-88
2023/07/05 06:51:05;;;;;;;0.07;0.07;;;;;;;16.62;nan;99736.56;4966531;28;20238;-87
2023/07/05 06:53:30;;;;;;;0.57;0.57;;;;;;;16.65;nan;99750.44;4964758;28;20189;-88
2023/07/05 06:55:56;;;;;;;0.00;0.00;;;;;;;16.74;nan;99754.91;4958638;28;20659;-88
2023/07/05 06:58:21;;;;;;;0.30;0.13;;;;;;;16.84;nan;99788.22;4973080;28;20205;-85
2023/07/05 07:00:48;;;;;;;0.13;0.13;;;;;;;16.97;nan;99738.34;4984589;28;20237;-87
2023/07/05 07:03:14;;;;;;;0.17;0.17;;;;;;;16.88;nan;99766.19;4955435;28;20189;-89
2023/07/05 07:05:40;;;;;;;0.87;0.80;;;;;;;16.97;nan;99752.94;4969749;28;20285;-87
2023/07/05 07:08:05;;;;;;;0.27;0.27;;;;;;;17.07;nan;99762.53;4969159;28;20229;-87
2023/07/05 07:10:33;;;;;;;0.43;0.43;;;;;;;17.12;nan;99834.00;4972603;28;20212;-88
2023/07/05 07:12:58;;;;;;;0.10;0.10;;;;;;;17.07;nan;99773.56;4974010;28;20178;-87
2023/07/05 07:15:24;;;;;;;1.70;1.53;;;;;;;17.03;nan;99823.19;4970437;28;20193;-87
2023/07/05 07:17:49;;;;;;;2.93;0.87;;;;;;;17.05;nan;99840.19;4958963;28;20212;-87
2023/07/05 07:20:15;;;;;;;0.20;0.20;;;;;;;17.08;nan;99830.38;4963558;28;20183;-88
2023/07/05 07:22:41;;;;;;;0.77;0.77;;;;;;;17.13;nan;99838.34;4950234;29;20665;-88
2023/07/05 07:25:07;;;;;;;0.63;0.40;;;;;;;17.18;nan;99827.78;4965800;28;20221;-87
2023/07/05 07:27:32;;;;;;;1.87;1.70;;;;;;;17.15;nan;99825.75;4962264;28;20300;-88
2023/07/05 07:29:58;;;;;;;0.77;0.77;;;;;;;17.17;nan;99837.22;4953155;29;20289;-87
2023/07/05 07:32:24;;;;;;;0.23;0.23;;;;;;;17.27;nan;99832.25;4971388;28;20217;-87
2023/07/05 07:34:54;;;;;;;0.47;0.33;;;;;;;17.36;nan;99852.91;4959081;28;20182;-87
2023/07/05 07:37:19;;;;;;;0.10;0.10;;;;;;;17.32;nan;99829.94;4969637;28;20183;-88
2023/07/05 07:39:45;;;;;;;0.30;0.30;;;;;;;17.33;nan;99844.56;4953126;28;20403;-87
2023/07/05 07:42:10;;;;;;;1.30;1.20;;;;;;;17.36;nan;99846.56;4947132;28;20190;-87
2023/07/05 07:44:35;;;;;;;0.87;0.87;;;;;;;17.44;nan;99856.56;4953626;28;20181;-88
2023/07/05 07:47:01;;;;;;;0.20;0.20;;;;;;;17.76;nan;99870.88;4954046;28;20194;-88
2023/07/05 07:49:26;;;;;;;1.50;0.70;;;;;;;17.76;nan;99852.31;5781315;23;20230;-88
2023/07/05 07:51:51;;;;;;;0.50;0.50;;;;;;;17.89;nan;99868.66;4957501;28;20233;-90
2023/07/05 07:54:20;;;;;;;0.53;0.53;;;;;;;17.59;nan;99860.34;4953764;28;20193;-87
2023/07/05 07:56:47;;;;;;;1.77;1.23;;;;;;;17.11;nan;99838.72;4969011;28;20214;-88
2023/07/05 07:59:13;;;;;;;0.83;0.77;;;;;;;16.90;nan;99841.09;4953635;28;20205;-88
2023/07/05 08:01:39;;;;;;;1.27;1.17;;;;;;;16.58;nan;99833.03;4953018;29;20201;-88
2023/07/05 08:04:07;;;;;;;1.00;0.70;;;;;;;16.26;nan;99815.91;4968935;28;20186;-87
2023/07/05 08:06:36;;;;;;;1.47;1.37;;;;;;;16.28;nan;99829.34;4945824;29;20194;-89
2023/07/05 08:09:05;;;;;;;5.47;0.90;;;;;;;16.41;nan;99833.53;4952609;29;20277;-89
2023/07/05 08:11:31;;;;;;;1.30;1.20;;;;;;;16.64;nan;99850.09;4968708;28;20672;-88
2023/07/05 08:13:56;;;;;;;1.60;1.23;;;;;;;16.85;nan;99857.97;4968873;28;20190;-88
2023/07/05 08:16:21;;;;;;;2.17;2.03;;;;;;;16.97;nan;99855.03;4952762;29;20190;-88
2023/07/05 08:18:46;;;;;;;0.73;0.73;;;;;;;17.12;nan;99875.41;4949111;29;20183;-89
2023/07/05 08:21:14;;;;;;;0.97;0.87;;;;;;;17.15;nan;99853.38;4966102;28;20229;-88
2023/07/05 08:23:41;;;;;;;0.80;0.80;;;;;;;17.13;nan;99866.75;4969112;28;20675;-88
2023/07/05 08:26:06;;;;;;;1.50;1.40;;;;;;;17.19;nan;99868.00;4969063;28;20217;-88
2023/07/05 08:28:31;;;;;;;0.70;0.60;;;;;;;17.37;nan;99882.13;4952496;29;20471;-89
2023/07/05 08:30:59;;;;;;;2.90;1.57;;;;;;;17.35;nan;99889.16;4953721;29;20195;-88
2023/07/05 08:33:27;;;;;;;1.37;1.23;;;;;;;17.39;nan;99873.47;4953675;28;20198;-88
2023/07/05 08:36:31;;;;;;;2.37;1.60;;;;;;;17.44;nan;99873.94;4953077;29;20190;-89
2023/07/05 08:38:57;;;;;;;0.70;0.70;;;;;;;17.66;nan;99888.06;4939327;29;20252;-88
2023/07/05 08:41:41;;;;;;;9.60;1.00;;;;;;;17.95;nan;99901.16;4968734;28;20644;-88
2023/07/05 08:44:30;;;;;;;0.43;0.43;;;;;;;17.92;nan;99899.13;4949264;28;20191;-88
2023/07/05 08:47:13;;;;;;;2.10;1.50;;;;;;;17.69;nan;99879.06;4962357;28;20182;-88
2023/07/05 08:49:46;;;;;;;1.00;1.00;;;;;;;17.64;nan;99879.34;4947038;29;20208;-87
2023/07/05 08:52:19;;;;;;;3.90;0.90;;;;;;;17.74;nan;99878.72;4968404;28;20194;-89
2023/07/05 08:54:45;;;;;;;22.47;1.27;;;;;;;17.96;nan;99899.19;4953961;28;20692;-87
2023/07/05 08:57:23;;;;;;;0.73;0.73;;;;;;;18.06;nan;99904.84;4953653;28;20277;-87
2023/07/05 08:59:54;;;;;;;0.90;0.87;;;;;;;18.21;nan;99913.31;4968209;28;20206;-87
2023/07/05 09:02:20;;;;;;;1.30;0.90;;;;;;;18.23;nan;99914.56;4954183;28;20186;-88
2023/07/05 09:04:47;;;;;;;0.70;0.70;;;;;;;17.99;nan;99906.72;4957195;29;20548;-88
2023/07/05 09:07:39;;;;;;;0.80;0.70;;;;;;;18.09;nan;99912.41;4957436;28;20209;-87
2023/07/05 09:10:19;;;;;;;4.03;1.80;;;;;;;17.84;nan;99903.75;4972203;28;20566;-89
2023/07/05 09:13:02;;;;;;;1.13;0.90;;;;;;;17.64;nan;99902.22;4956388;28;20186;-88
2023/07/05 09:15:38;;;;;;;0.67;0.67;;;;;;;17.77;nan;99900.88;4958305;29;20742;-88
2023/07/05 09:18:34;;;;;;;8.33;1.27;;;;;;;17.84;nan;99895.47;4957028;28;20186;-88
2023/07/05 09:21:14;;;;;;;0.80;0.73;;;;;;;18.09;nan;99912.41;4952686;29;20198;-86
2023/07/05 09:23:55;;;;;;;0.63;0.63;;;;;;;18.14;nan;99909.28;4956662;29;20193;-88
2023/07/05 09:26:35;;;;;;;0.97;0.77;;;;;;;18.17;nan;99918.00;4958067;28;20190;-87
2023/07/05 09:29:29;;;;;;;0.53;0.50;;;;;;;17.96;nan;99911.03;4957897;28;20537;-87
2023/07/05 09:31:55;;;;;;;0.70;0.70;;;;;;;18.01;nan;99916.22;4967105;28;20707;-86
2023/07/05 09:34:34;;;;;;;1.00;0.80;;;;;;;18.35;nan;99943.91;4956353;28;20209;-87
2023/07/05 09:37:01;;;;;;;25.53;0.83;;;;;;;18.43;nan;99934.53;4957669;28;20236;-86
2023/07/05 09:39:41;;;;;;;0.80;0.80;;;;;;;18.47;nan;99920.75;4972558;28;20222;-87
2023/07/05 09:42:16;;;;;;;0.90;0.90;;;;;;;18.54;nan;99921.63;4972963;28;20190;-87
2023/07/05 09:44:42;;;;;;;1.83;0.83;;;;;;;18.54;nan;99905.03;4963272;28;20193;-87
2023/07/05 09:47:07;;;;;;;0.87;0.87;;;;;;;18.70;nan;99930.53;4972956;28;20186;-88
2023/07/05 09:49:35;;;;;;;0.97;0.97;;;;;;;18.73;nan;99937.28;4949423;29;20214;-87
2023/07/05 09:52:01;;;;;;;0.77;0.77;;;;;;;18.78;nan;99931.41;4957601;28;20690;-87
2023/07/05 09:54:30;;;;;;;0.33;0.33;;;;;;;18.99;nan;99955.75;4956100;29;20194;-87
2023/07/05 09:57:04;;;;;;;1.97;0.97;;;;;;;19.06;nan;99941.97;4972419;28;20182;-87
2023/07/05 09:59:31;;;;;;;0.40;0.40;;;;;;;18.61;nan;99924.47;4965327;28;20210;-88
2023/07/05 10:02:14;;;;;;;4.13;1.20;;;;;;;18.43;nan;99929.81;4965860;28;20245;-88
2023/07/05 10:04:47;;;;;;;1.73;1.57;;;;;;;18.48;nan;99920.38;4971106;28;20567;-87
2023/07/05 10:07:24;;;;;;;0.90;0.90;;;;;;;18.52;nan;99954.44;4967178;28;20221;-88
2023/07/05 10:09:59;;;;;;;0.20;0.20;;;;;;;18.38;nan;99938.44;4957425;28;20217;-88
2023/07/05 10:12:32;;;;;;;1.00;0.90;;;;;;;18.10;nan;99940.84;4972231;28;20219;-88
2023/07/05 10:14:57;;;;;;;0.40;0.40;;;;;;;18.04;nan;99951.41;4964971;28;20183;-87
2023/07/05 10:17:24;;;;;;;0.20;0.20;;;;;;;17.97;nan;99958.81;4965491;28;20221;-87
2023/07/05 10:19:51;;;;;;;0.20;0.20;;;;;;;18.12;nan;99979.97;4961969;28;20291;-88
2023/07/05 10:22:30;;;;;;;0.40;0.30;;;;;;;18.36;nan;99987.00;4959901;28;20182;-86
2023/07/05 10:24:58;;;;;;;0.80;0.80;;;;;;;18.54;nan;99976.19;4970594;28;20672;-88
2023/07/05 10:27:28;;;;;;;1.17;0.93;;;;;;;18.54;nan;99965.13;4957577;28;20206;-88
2023/07/05 10:30:00;;;;;;;1.60;0.83;;;;;;;18.86;nan;99982.91;4964256;28;20202;-87
2023/07/05 10:32:27;;;;;;;0.60;0.60;;;;;;;18.83;nan;99971.81;4964320;28;20214;-87
2023/07/05 10:34:55;;;;;;;0.77;0.60;;;;;;;19.00;nan;100005.22;4965329;28;20561;-84
2023/07/05 10:37:38;;;;;;;0.67;0.67;;;;;;;18.77;nan;99968.56;4966878;28;20178;-87
2023/07/05 10:40:08;;;;;;;2.77;0.60;;;;;;;18.68;nan;99976.38;4959372;28;20731;-87
2023/07/05 10:42:37;;;;;;;1.30;1.20;;;;;;;18.55;nan;99956.44;4959400;28;20268;-86
2023/07/05 10:45:03;;;;;;;0.93;0.93;;;;;;;18.45;nan;99984.75;4961348;28;20229;-87
2023/07/05 10:47:31;;;;;;;0.30;0.30;;;;;;;18.55;nan;99999.91;4965669;28;20665;-84
2023/07/05 10:50:08;;;;;;;0.70;0.70;;;;;;;18.23;nan;99978.16;4971728;28;20582;-85
2023/07/05 10:52:36;;;;;;;0.30;0.30;;;;;;;18.18;nan;99985.97;4959959;28;20197;-86
2023/07/05 10:55:19;;;;;;;1.20;1.10;;;;;;;18.06;nan;99986.97;4977006;28;20583;-87
2023/07/05 10:57:55;;;;;;;0.10;0.10;;;;;;;18.01;nan;100009.44;4964167;28;20185;-86
2023/07/05 11:00:21;;;;;;;0.70;0.70;;;;;;;17.95;nan;99991.56;4967174;28;20228;-84
2023/07/05 11:03:03;;;;;;;0.73;0.73;;;;;;;17.94;nan;100004.59;4970236;28;20185;-86
2023/07/05 11:05:45;;;;;;;0.73;0.60;;;;;;;18.00;nan;100007.84;4974205;28;20271;-86
2023/07/05 11:08:28;;;;;;;3.40;0.70;;;;;;;18.37;nan;100147.09;4967140;28;20724;-86
2023/07/05 11:10:56;;;;;;;11.53;0.47;;;;;;;18.70;nan;100085.53;4970188;28;20218;-89
2023/07/05 11:13:22;;;;;;;1.20;0.77;;;;;;;18.97;nan;100071.63;4959629;28;20190;-86
2023/07/05 11:15:48;;;;;;;0.00;0.00;;;;;;;19.05;nan;100056.69;4968801;28;20235;-88
2023/07/05 11:18:18;;;;;;;0.70;0.60;;;;;;;18.95;nan;100036.03;4968913;28;20246;-87
2023/07/05 11:20:48;;;;;;;0.60;0.50;;;;;;;18.93;nan;100012.63;4964015;28;20195;-88
2023/07/05 11:23:42;;;;;;;1.53;1.00;;;;;;;18.89;nan;100020.13;4964744;28;20261;-87
2023/07/05 11:26:08;;;;;;;0.00;0.00;;;;;;;18.95;nan;100015.81;4962134;28;20277;-85
2023/07/05 11:28:39;;;;;;;0.40;0.40;;;;;;;18.81;nan;100008.19;4974330;28;20181;-87
2023/07/05 11:31:06;;;;;;;4.20;0.70;;;;;;;18.65;nan;100005.59;4965390;28;20252;-87
2023/07/05 11:33:32;;;;;;;4.93;0.90;;;;;;;18.57;nan;100016.94;4963122;28;20197;-87
2023/07/05 11:36:08;;;;;;;1.90;0.63;;;;;;;18.70;nan;100030.19;4961316;28;20186;-87
2023/07/05 11:38:36;;;;;;;0.47;0.40;;;;;;;18.59;nan;100020.13;4945591;29;20659;-86
2023/07/05 11:41:27;;;;;;;0.10;0.10;;;;;;;18.74;nan;100019.16;4962848;28;20688;-87
2023/07/05 11:44:23;;;;;;;2.30;0.60;;;;;;;18.96;nan;100045.13;4969491;28;20248;-87
2023/07/05 11:46:49;;;;;;;0.97;0.83;;;;;;;19.05;nan;100050.34;4961455;28;20209;-87
2023/07/05 11:49:17;;;;;;;1.47;0.43;;;;;;;19.24;nan;100045.44;4970336;28;20210;-87
2023/07/05 11:51:44;;;;;;;0.47;0.33;;;;;;;19.28;nan;100026.88;4961420;28;20679;-88
2023/07/05 11:54:10;;;;;;;0.90;0.87;;;;;;;19.38;nan;100032.88;4961528;28;20195;-87
2023/07/05 11:56:39;;;;;;;5.70;0.43;;;;;;;19.48;nan;100046.06;4961885;28;20226;-88
2023/07/05 11:59:07;;;;;;;0.73;0.73;;;;;;;19.65;nan;100045.47;4977306;28;20723;-88